createdAt,value
2019-03-17T00:00:53.439Z,99.14
2019-03-17T00:03:32.000Z,99.08
2019-03-17T00:06:08.454Z,99.49
2019-03-17T00:08:45.282Z,98.85
2019-03-17T00:11:18.578Z,98.43
2019-03-17T00:13:54.210Z,98.80
2019-03-17T00:16:33.322Z,99.13
2019-03-17T00:19:10.474Z,99.06
2019-03-17T00:21:43.134Z,99.58
2019-03-17T00:24:23.025Z,98.85
2019-03-17T00:26:53.853Z,98.70
2019-03-17T00:29:26.626Z,99.02
2019-03-17T00:32:02.071Z,98.97
2019-03-17T00:34:44.142Z,99.10
2019-03-17T00:37:15.189Z,99.19
2019-03-17T00:39:56.587Z,98.50
2019-03-17T00:42:35.311Z,98.03
2019-03-17T00:45:14.212Z,98.01
2019-03-17T00:47:51.667Z,97.92
2019-03-17T00:50:28.605Z,97.81
2019-03-17T00:53:11.573Z,98.58
2019-03-17T00:56:21.126Z,99.27
2019-03-17T00:59:06.346Z,100.00
2019-03-17T01:02:35.226Z,100.00
2019-03-17T01:05:16.267Z,99.81
2019-03-17T01:07:48.516Z,100.00
2019-03-17T01:10:29.681Z,100.00
2019-03-17T01:13:05.467Z,100.00
2019-03-17T01:15:37.892Z,100.00
2019-03-17T01:18:20.268Z,100.00
2019-03-17T01:20:55.346Z,100.00
2019-03-17T01:23:25.603Z,100.00
2019-03-17T01:25:58.991Z,100.00
2019-03-17T01:28:33.636Z,100.00
2019-03-17T01:31:18.405Z,100.00
2019-03-17T01:33:58.507Z,100.00
2019-03-17T01:36:44.945Z,100.00
2019-03-17T01:39:28.372Z,100.00
2019-03-17T01:42:01.439Z,100.00
2019-03-17T01:44:38.025Z,100.00
2019-03-17T01:47:12.854Z,100.00
2019-03-17T01:49:46.371Z,100.00
2019-03-17T01:52:16.812Z,100.00
2019-03-17T01:54:49.617Z,100.00
2019-03-17T01:57:26.123Z,100.00
2019-03-17T02:00:02.402Z,100.00
2019-03-17T02:02:40.786Z,100.00
2019-03-17T02:05:21.872Z,100.00
2019-03-17T02:07:53.069Z,100.00
2019-03-17T02:10:27.672Z,100.00
2019-03-17T02:13:08.943Z,100.00
2019-03-17T02:15:50.958Z,100.00
2019-03-17T02:18:23.981Z,100.00
2019-03-17T02:20:58.491Z,100.00
2019-03-17T02:23:33.130Z,100.00
2019-03-17T02:26:10.322Z,100.00
2019-03-17T02:28:43.443Z,100.00
2019-03-17T02:31:18.332Z,100.00
2019-03-17T02:33:50.918Z,100.00
2019-03-17T02:36:25.295Z,100.00
2019-03-17T02:39:02.009Z,100.00
2019-03-17T02:41:43.001Z,100.00
2019-03-17T02:44:18.371Z,100.00
2019-03-17T02:46:59.376Z,100.00
2019-03-17T02:49:51.630Z,100.00
2019-03-17T02:52:31.981Z,100.00
2019-03-17T02:55:16.636Z,100.00
2019-03-17T02:57:56.160Z,100.00
2019-03-17T03:00:40.804Z,100.00
2019-03-17T03:03:25.760Z,100.00
2019-03-17T03:06:08.547Z,100.00
2019-03-17T03:08:47.358Z,100.00
2019-03-17T03:11:24.184Z,100.00
2019-03-17T03:14:04.959Z,100.00
2019-03-17T03:16:36.537Z,100.00
2019-03-17T03:19:08.057Z,100.00
2019-03-17T03:21:39.410Z,100.00
2019-03-17T03:24:11.483Z,100.00
2019-03-17T03:26:42.341Z,100.00
2019-03-17T03:29:17.213Z,100.00
2019-03-17T03:31:49.940Z,100.00
2019-03-17T03:34:22.574Z,100.00
2019-03-17T03:36:57.642Z,100.00
2019-03-17T03:39:31.172Z,100.00
2019-03-17T03:42:04.273Z,100.00
2019-03-17T03:44:34.949Z,100.00
2019-03-17T03:47:07.174Z,100.00
2019-03-17T03:49:38.632Z,100.00
2019-03-17T03:52:16.216Z,100.00
2019-03-17T03:54:52.485Z,100.00
2019-03-17T03:57:34.581Z,100.00
2019-03-17T04:00:13.204Z,100.00
2019-03-17T04:02:47.366Z,100.00
2019-03-17T04:05:22.212Z,100.00
2019-03-17T04:11:34.355Z,100.00
2019-03-17T04:14:08.707Z,100.00
2019-03-17T04:16:42.387Z,100.00
2019-03-17T04:19:15.634Z,100.00
2019-03-17T04:21:47.622Z,100.00
2019-03-17T04:24:20.231Z,100.00
2019-03-17T04:26:50.506Z,100.00
2019-03-17T04:29:21.053Z,100.00
2019-03-17T04:31:52.160Z,100.00
2019-03-17T04:34:25.048Z,100.00
2019-03-17T04:36:59.341Z,100.00
2019-03-17T04:39:31.720Z,100.00
2019-03-17T04:42:10.661Z,100.00
2019-03-17T04:44:44.157Z,100.00
2019-03-17T04:47:35.712Z,100.00
2019-03-17T04:50:10.691Z,100.00
2019-03-17T04:52:46.676Z,100.00
2019-03-17T04:55:19.139Z,100.00
2019-03-17T04:57:53.240Z,100.00
2019-03-17T05:00:28.073Z,100.00
2019-03-17T05:03:01.530Z,100.00
2019-03-17T05:05:39.569Z,100.00
2019-03-17T05:08:14.044Z,100.00
2019-03-17T05:10:48.022Z,100.00
2019-03-17T05:13:24.698Z,100.00
2019-03-17T05:15:56.547Z,100.00
2019-03-17T05:18:37.722Z,100.00
2019-03-17T05:21:26.438Z,100.00
2019-03-17T05:24:01.350Z,100.00
2019-03-17T05:26:35.734Z,100.00
2019-03-17T05:29:10.791Z,100.00
2019-03-17T05:31:46.856Z,100.00
2019-03-17T05:34:18.055Z,100.00
2019-03-17T05:36:48.724Z,100.00
2019-03-17T05:39:22.057Z,100.00
2019-03-17T05:41:55.405Z,100.00
2019-03-17T05:44:27.396Z,100.00
2019-03-17T05:47:07.621Z,100.00
2019-03-17T05:49:43.330Z,100.00
2019-03-17T05:52:17.961Z,100.00
2019-03-17T05:54:48.757Z,100.00
2019-03-17T05:57:26.230Z,100.00
2019-03-17T06:00:11.671Z,100.00
2019-03-17T06:02:49.980Z,100.00
2019-03-17T06:05:34.399Z,100.00
2019-03-17T06:08:09.904Z,100.00
2019-03-17T06:10:59.104Z,100.00
2019-03-17T06:13:28.634Z,100.00
2019-03-17T06:16:05.391Z,100.00
2019-03-17T06:18:37.779Z,100.00
2019-03-17T06:21:10.520Z,100.00
2019-03-17T06:23:41.637Z,100.00
2019-03-17T06:26:13.798Z,100.00
2019-03-17T06:28:45.238Z,100.00
2019-03-17T06:31:15.835Z,100.00
2019-03-17T06:33:46.413Z,100.00
2019-03-17T06:36:17.155Z,100.00
2019-03-17T06:38:47.879Z,100.00
2019-03-17T06:41:19.020Z,100.00
2019-03-17T06:43:49.556Z,100.00
2019-03-17T06:46:21.923Z,100.00
2019-03-17T06:48:52.999Z,100.00
2019-03-17T06:51:24.088Z,100.00
2019-03-17T06:53:56.706Z,100.00
2019-03-17T06:56:28.377Z,100.00
2019-03-17T06:58:59.963Z,100.00
2019-03-17T07:01:30.940Z,100.00
2019-03-17T07:04:02.800Z,100.00
2019-03-17T07:06:34.781Z,100.00
2019-03-17T07:09:08.414Z,100.00
2019-03-17T07:11:39.731Z,100.00
2019-03-17T07:14:10.472Z,100.00
2019-03-17T07:16:41.999Z,100.00
2019-03-17T07:19:15.071Z,100.00
2019-03-17T07:21:48.619Z,100.00
2019-03-17T07:24:23.259Z,100.00
2019-03-17T07:26:55.214Z,100.00
2019-03-17T07:29:45.141Z,100.00
2019-03-17T07:32:16.664Z,100.00
2019-03-17T07:34:47.901Z,100.00
2019-03-17T07:37:20.100Z,100.00
2019-03-17T07:39:52.139Z,100.00
2019-03-17T07:42:22.621Z,100.00
2019-03-17T07:44:55.328Z,100.00
2019-03-17T07:47:30.593Z,100.00
2019-03-17T07:50:04.312Z,100.00
2019-03-17T07:52:35.459Z,100.00
2019-03-17T07:55:08.740Z,100.00
2019-03-17T07:57:40.574Z,100.00
2019-03-17T08:00:14.453Z,100.00
2019-03-17T08:02:44.950Z,100.00
2019-03-17T08:05:17.803Z,100.00
2019-03-17T08:07:48.329Z,100.00
2019-03-17T08:10:20.840Z,100.00
2019-03-17T08:12:51.504Z,100.00
2019-03-17T08:15:24.122Z,100.00
2019-03-17T08:17:56.870Z,100.00
2019-03-17T08:20:29.715Z,100.00
2019-03-17T08:23:01.838Z,100.00
2019-03-17T08:25:32.214Z,100.00
2019-03-17T08:28:02.830Z,100.00
2019-03-17T08:30:36.419Z,100.00
2019-03-17T08:33:08.828Z,100.00
2019-03-17T08:35:40.557Z,100.00
2019-03-17T08:38:21.220Z,100.00
2019-03-17T08:40:44.113Z,100.00
2019-03-17T08:43:14.524Z,100.00
2019-03-17T08:45:45.058Z,100.00
2019-03-17T08:48:16.264Z,100.00
2019-03-17T08:50:48.520Z,100.00
2019-03-17T08:53:19.432Z,100.00
2019-03-17T08:55:50.034Z,100.00
2019-03-17T08:58:23.610Z,100.00
2019-03-17T09:00:54.081Z,100.00
2019-03-17T09:03:26.801Z,100.00
2019-03-17T09:06:05.370Z,98.85
2019-03-17T09:08:37.047Z,99.76
2019-03-17T09:11:09.070Z,98.63
2019-03-17T09:13:40.716Z,98.88
2019-03-17T09:16:10.572Z,96.61
2019-03-17T09:18:42.538Z,95.67
2019-03-17T09:21:16.931Z,95.47
2019-03-17T09:23:49.142Z,95.07
2019-03-17T09:26:19.848Z,92.46
2019-03-17T09:28:56.511Z,90.46
2019-03-17T09:31:26.503Z,90.43
2019-03-17T09:33:58.203Z,89.92
2019-03-17T09:36:32.229Z,89.65
2019-03-17T09:39:02.148Z,89.76
2019-03-17T09:41:32.708Z,88.83
2019-03-17T09:44:02.857Z,88.80
2019-03-17T09:46:35.788Z,87.85
2019-03-17T09:49:11.503Z,88.76
2019-03-17T09:51:42.258Z,88.34
2019-03-17T09:54:12.941Z,88.77
2019-03-17T09:56:47.046Z,87.37
2019-03-17T09:59:20.374Z,87.91
2019-03-17T10:01:52.428Z,88.71
2019-03-17T10:04:22.963Z,88.87
2019-03-17T10:06:54.108Z,86.15
2019-03-17T10:09:24.464Z,85.25
2019-03-17T10:11:56.860Z,85.81
2019-03-17T10:14:27.488Z,82.94
2019-03-17T10:17:00.724Z,83.26
2019-03-17T10:19:32.539Z,81.84
2019-03-17T10:22:04.761Z,83.68
2019-03-17T10:24:35.123Z,83.84
2019-03-17T10:27:09.828Z,82.77
2019-03-17T10:29:40.738Z,81.79
2019-03-17T10:32:13.241Z,78.92
2019-03-17T10:34:44.621Z,83.16
2019-03-17T10:37:18.250Z,83.83
2019-03-17T10:39:50.434Z,84.46
2019-03-17T10:42:20.773Z,84.70
2019-03-17T10:44:51.502Z,85.38
2019-03-17T10:47:23.531Z,83.86
2019-03-17T10:49:56.865Z,83.78
2019-03-17T10:52:26.785Z,85.03
2019-03-17T10:54:58.311Z,84.03
2019-03-17T10:57:30.579Z,81.81
2019-03-17T11:00:03.727Z,76.98
2019-03-17T11:02:36.110Z,78.68
2019-03-17T11:05:07.651Z,78.17
2019-03-17T11:07:38.224Z,77.33
2019-03-17T11:10:12.089Z,77.33
2019-03-17T11:12:42.692Z,77.83
2019-03-17T11:15:23.097Z,75.85
2019-03-17T11:17:55.098Z,76.78
2019-03-17T11:20:25.429Z,76.17
2019-03-17T11:22:57.335Z,75.68
2019-03-17T11:25:29.496Z,75.09
2019-03-17T11:28:00.423Z,75.49
2019-03-17T11:30:33.641Z,74.30
2019-03-17T11:33:05.405Z,73.80
2019-03-17T11:35:36.316Z,74.84
2019-03-17T11:38:06.712Z,75.35
2019-03-17T11:40:36.759Z,75.70
2019-03-17T11:43:06.950Z,76.34
2019-03-17T11:45:58.181Z,75.27
2019-03-17T11:48:33.501Z,74.35
2019-03-17T11:51:04.636Z,73.66
2019-03-17T11:53:39.757Z,73.69
2019-03-17T11:56:11.745Z,74.38
2019-03-17T11:58:44.938Z,75.03
2019-03-17T12:01:18.144Z,75.97
2019-03-17T12:03:48.664Z,75.21
2019-03-17T12:06:19.050Z,74.58
2019-03-17T12:08:50.195Z,73.85
2019-03-17T12:11:20.885Z,74.07
2019-03-17T12:13:59.703Z,74.49
2019-03-17T12:16:31.385Z,73.56
2019-03-17T12:19:02.720Z,73.49
2019-03-17T12:21:33.412Z,73.00
2019-03-17T12:24:15.394Z,73.24
2019-03-17T12:26:48.411Z,71.49
2019-03-17T12:29:23.868Z,68.91
2019-03-17T12:31:55.538Z,70.43
2019-03-17T12:34:28.403Z,71.82
2019-03-17T12:37:08.757Z,71.34
2019-03-17T12:39:49.014Z,69.24
2019-03-17T12:42:23.700Z,70.04
2019-03-17T12:44:54.128Z,69.43
2019-03-17T12:47:24.984Z,68.37
2019-03-17T12:50:18.448Z,67.42
2019-03-17T12:52:51.659Z,64.83
2019-03-17T12:55:23.593Z,65.99
2019-03-17T12:57:54.732Z,63.60
2019-03-17T13:00:26.818Z,63.86
2019-03-17T13:02:58.500Z,65.25
2019-03-17T13:05:28.694Z,65.08
2019-03-17T13:08:00.810Z,62.86
2019-03-17T13:10:36.617Z,62.17
2019-03-17T13:16:32.445Z,68.14
2019-03-17T13:19:08.250Z,68.54
2019-03-17T13:21:40.078Z,68.98
2019-03-17T13:24:10.574Z,68.97
2019-03-17T13:26:41.991Z,69.20
2019-03-17T13:29:12.506Z,67.01
2019-03-17T13:31:43.884Z,66.82
2019-03-17T13:34:14.624Z,68.37
2019-03-17T13:36:46.655Z,69.55
2019-03-17T13:39:17.582Z,70.00
2019-03-17T13:41:48.709Z,70.63
2019-03-17T13:44:19.387Z,68.53
2019-03-17T13:46:50.907Z,68.75
2019-03-17T13:49:23.993Z,69.61
2019-03-17T13:51:56.017Z,69.94
2019-03-17T13:54:27.134Z,69.87
2019-03-17T13:56:59.806Z,70.64
2019-03-17T13:59:32.090Z,71.55
2019-03-17T14:02:05.246Z,71.68
2019-03-17T14:04:36.821Z,71.14
2019-03-17T14:07:10.140Z,69.69
2019-03-17T14:09:40.998Z,70.31
2019-03-17T14:12:11.267Z,70.14
2019-03-17T14:14:42.032Z,70.76
2019-03-17T14:17:12.065Z,72.29
2019-03-17T14:19:42.996Z,72.78
2019-03-17T14:22:13.034Z,73.75
2019-03-17T14:24:44.535Z,74.35
2019-03-17T14:27:15.067Z,74.38
2019-03-17T14:29:45.328Z,74.02
2019-03-17T14:32:15.781Z,74.14
2019-03-17T14:34:47.711Z,74.47
2019-03-17T14:37:19.193Z,75.78
2019-03-17T14:39:49.212Z,75.76
2019-03-17T14:42:22.695Z,77.52
2019-03-17T14:44:54.796Z,75.99
2019-03-17T14:47:27.454Z,76.10
2019-03-17T14:49:59.699Z,76.00
2019-03-17T14:52:30.126Z,77.27
2019-03-17T14:55:01.033Z,77.64
2019-03-17T14:57:33.533Z,78.08
2019-03-17T15:00:09.140Z,78.19
2019-03-17T15:02:41.171Z,78.31
2019-03-17T15:05:12.647Z,75.24
2019-03-17T15:07:45.985Z,75.94
2019-03-17T15:10:23.401Z,73.76
2019-03-17T15:12:53.487Z,73.50
2019-03-17T15:15:24.984Z,72.40
2019-03-17T15:17:55.671Z,73.60
2019-03-17T15:20:27.808Z,75.31
2019-03-17T15:22:58.244Z,76.21
2019-03-17T15:25:28.967Z,76.55
2019-03-17T15:28:01.437Z,76.15
2019-03-17T15:30:37.359Z,77.03
2019-03-17T15:33:13.300Z,76.75
2019-03-17T15:35:45.878Z,75.26
2019-03-17T15:38:16.872Z,73.48
2019-03-17T15:40:48.155Z,74.49
2019-03-17T15:43:20.959Z,75.46
2019-03-17T15:45:54.616Z,75.68
2019-03-17T15:48:24.910Z,76.60
2019-03-17T15:50:55.984Z,77.38
2019-03-17T15:53:27.908Z,76.91
2019-03-17T15:55:59.954Z,77.37
2019-03-17T15:58:30.273Z,76.29
2019-03-17T16:01:01.174Z,75.38
2019-03-17T16:03:31.465Z,75.46
2019-03-17T16:06:05.133Z,76.29
2019-03-17T16:08:35.677Z,76.26
2019-03-17T16:11:06.305Z,75.88
2019-03-17T16:13:36.837Z,75.99
2019-03-17T16:16:07.187Z,76.63
2019-03-17T16:18:38.809Z,77.70
2019-03-17T16:21:11.122Z,77.66
2019-03-17T16:23:41.520Z,77.79
2019-03-17T16:26:13.992Z,78.51
2019-03-17T16:28:45.179Z,79.16
2019-03-17T16:31:17.554Z,79.84
2019-03-17T16:33:47.573Z,80.66
2019-03-17T16:36:20.356Z,81.37
2019-03-17T16:38:51.824Z,82.11
2019-03-17T16:41:22.367Z,82.46
2019-03-17T16:43:53.028Z,82.09
2019-03-17T16:46:22.892Z,81.50
2019-03-17T16:48:54.511Z,81.69
2019-03-17T16:51:25.334Z,81.12
2019-03-17T16:53:57.156Z,81.15
2019-03-17T16:56:30.372Z,81.90
2019-03-17T16:59:01.563Z,81.58
2019-03-17T17:01:34.028Z,81.76
2019-03-17T17:04:05.679Z,82.88
2019-03-17T17:06:36.264Z,82.51
2019-03-17T17:09:10.148Z,81.23
2019-03-17T17:11:40.218Z,80.32
2019-03-17T17:14:11.490Z,80.04
2019-03-17T17:16:42.721Z,79.60
2019-03-17T17:19:13.069Z,79.96
2019-03-17T17:21:44.912Z,80.27
2019-03-17T17:24:15.237Z,80.13
2019-03-17T17:26:48.516Z,80.53
2019-03-17T17:29:24.991Z,81.22
2019-03-17T17:31:55.405Z,81.36
2019-03-17T17:34:26.604Z,81.40
2019-03-17T17:36:57.343Z,81.41
2019-03-17T17:39:32.610Z,81.93
2019-03-17T17:42:11.837Z,82.41
2019-03-17T17:44:43.558Z,82.93
2019-03-17T17:47:15.007Z,82.51
2019-03-17T17:49:46.818Z,82.62
2019-03-17T17:52:20.375Z,82.48
2019-03-17T17:54:50.909Z,82.55
2019-03-17T17:57:23.271Z,82.40
2019-03-17T17:59:53.587Z,82.38
2019-03-17T18:02:26.837Z,82.90
2019-03-17T18:05:01.615Z,82.34
2019-03-17T18:07:32.487Z,82.13
2019-03-17T18:10:05.601Z,82.09
2019-03-17T18:12:37.574Z,82.07
2019-03-17T18:15:13.543Z,82.60
2019-03-17T18:17:47.032Z,82.18
2019-03-17T18:20:19.668Z,82.26
2019-03-17T18:22:51.135Z,82.47
2019-03-17T18:25:22.577Z,82.73
2019-03-17T18:27:55.067Z,83.11
2019-03-17T18:30:26.499Z,83.25
2019-03-17T18:32:57.536Z,83.55
2019-03-17T18:35:28.486Z,83.54
2019-03-17T18:38:01.136Z,83.97
2019-03-17T18:40:32.845Z,84.51
2019-03-17T18:43:04.548Z,84.97
2019-03-17T18:45:35.405Z,85.25
2019-03-17T18:48:08.026Z,85.11
2019-03-17T18:50:39.929Z,85.00
2019-03-17T18:53:10.781Z,86.00
2019-03-17T18:55:43.415Z,85.58
2019-03-17T18:58:15.386Z,85.47
2019-03-17T19:00:56.960Z,85.37
2019-03-17T19:03:49.541Z,85.20
2019-03-17T19:06:20.060Z,85.57
2019-03-17T19:08:50.944Z,85.64
2019-03-17T19:11:24.567Z,86.07
2019-03-17T19:14:26.115Z,86.60
2019-03-17T19:17:01.865Z,86.77
2019-03-17T19:19:40.195Z,87.79
2019-03-17T19:22:11.501Z,88.08
2019-03-17T19:24:43.828Z,89.12
2019-03-17T19:27:14.671Z,89.57
2019-03-17T19:29:45.105Z,90.10
2019-03-17T19:32:15.804Z,89.35
2019-03-17T19:34:48.034Z,88.82
2019-03-17T19:37:21.554Z,88.48
2019-03-17T19:39:53.884Z,88.52
2019-03-17T19:42:26.724Z,88.61
2019-03-17T19:44:58.568Z,89.21
2019-03-17T19:47:29.305Z,89.95
2019-03-17T19:49:59.838Z,90.69
2019-03-17T19:52:32.118Z,90.11
2019-03-17T19:55:05.766Z,90.04
2019-03-17T19:57:46.234Z,90.48
2019-03-17T20:00:20.036Z,90.90
2019-03-17T20:02:51.923Z,90.91
2019-03-17T20:05:23.971Z,90.91
2019-03-17T20:07:58.631Z,91.25
2019-03-17T20:10:32.081Z,91.66
2019-03-17T20:13:11.369Z,92.08
2019-03-17T20:15:45.206Z,92.41
2019-03-17T20:18:17.881Z,92.41
2019-03-17T20:20:55.839Z,93.06
2019-03-17T20:23:28.361Z,93.06
2019-03-17T20:26:01.717Z,93.56
2019-03-17T20:28:37.156Z,93.27
2019-03-17T20:31:20.789Z,93.61
2019-03-17T20:33:54.983Z,93.47
2019-03-17T20:36:45.265Z,93.85
2019-03-17T20:39:21.867Z,93.48
2019-03-17T20:42:10.058Z,93.32
2019-03-17T20:44:54.916Z,93.79
2019-03-17T20:47:54.633Z,93.32
2019-03-17T20:50:34.866Z,93.23
2019-03-17T20:53:13.718Z,93.44
2019-03-17T21:06:08.142Z,96.53
2019-03-17T21:09:02.031Z,96.81
2019-03-17T21:12:03.109Z,97.33
2019-03-17T21:14:44.085Z,97.92
2019-03-17T21:17:34.123Z,98.45
2019-03-17T21:20:39.000Z,98.72
2019-03-17T21:23:38.631Z,99.35
2019-03-17T21:26:31.671Z,99.05
2019-03-17T21:29:23.386Z,99.54
2019-03-17T21:32:05.322Z,99.19
2019-03-17T21:34:56.672Z,98.90
2019-03-17T21:37:48.258Z,98.69
2019-03-17T21:41:06.582Z,98.31
2019-03-17T21:43:31.353Z,98.46
2019-03-17T21:46:21.071Z,98.29
2019-03-17T21:49:16.073Z,98.34
2019-03-17T21:52:02.440Z,98.43
2019-03-17T21:55:02.610Z,98.36
2019-03-17T22:00:44.123Z,98.10
2019-03-17T22:03:38.725Z,97.73
2019-03-17T22:06:13.013Z,97.79
2019-03-17T22:08:52.891Z,97.48
2019-03-17T22:11:23.569Z,97.42
2019-03-17T22:13:53.617Z,96.32
2019-03-17T22:16:25.842Z,95.44
2019-03-17T22:19:00.361Z,95.19
2019-03-17T22:21:53.023Z,95.54
2019-03-17T22:24:31.042Z,94.93
2019-03-17T22:27:05.566Z,94.16
2019-03-17T22:29:35.949Z,94.58
2019-03-17T22:32:07.541Z,94.70
2019-03-17T22:34:45.354Z,95.14
2019-03-17T22:37:17.488Z,95.26
2019-03-17T22:39:49.305Z,95.31
2019-03-17T22:42:22.636Z,95.74
2019-03-17T22:44:52.786Z,95.41
2019-03-17T22:47:25.986Z,95.69
2019-03-17T22:49:57.809Z,95.90
2019-03-17T22:52:35.360Z,96.42
2019-03-17T22:55:08.208Z,96.55
2019-03-17T22:57:39.660Z,96.90
2019-03-17T23:00:40.583Z,97.43
2019-03-17T23:03:21.864Z,97.74
2019-03-17T23:06:06.560Z,97.59
2019-03-17T23:08:42.236Z,97.68
2019-03-17T23:11:17.843Z,97.27
2019-03-17T23:13:50.163Z,97.13
2019-03-17T23:16:24.958Z,97.24
2019-03-17T23:19:13.628Z,96.58
2019-03-17T23:21:48.963Z,96.08
2019-03-17T23:24:20.513Z,95.36
2019-03-17T23:37:22.178Z,95.10
2019-03-17T23:40:03.857Z,95.25
2019-03-17T23:42:42.027Z,95.15
2019-03-17T23:45:15.717Z,95.18
2019-03-17T23:47:49.458Z,95.05
2019-03-17T23:50:22.756Z,95.46
2019-03-17T23:52:58.598Z,95.65
2019-03-17T23:55:31.812Z,95.75
2019-03-17T23:58:06.962Z,95.31
